createdAt,value
2022-08-16T00:01:24.362Z,23.50
2022-08-16T00:03:52.910Z,23.60
2022-08-16T00:06:20.679Z,23.60
2022-08-16T00:08:47.947Z,23.60
2022-08-16T00:11:16.495Z,23.60
2022-08-16T00:13:54.174Z,23.40
2022-08-16T00:17:00.617Z,23.40
2022-08-16T00:19:13.652Z,23.40
2022-08-16T00:21:43.383Z,23.40
2022-08-16T00:24:12.405Z,23.30
2022-08-16T00:26:44.062Z,23.30
2022-08-16T00:29:16.446Z,23.30
2022-08-16T00:32:01.306Z,23.30
2022-08-16T00:34:45.193Z,23.10
2022-08-16T00:37:58.590Z,23.10
2022-08-16T00:40:34.235Z,23.10
2022-08-16T00:43:12.154Z,23.10
2022-08-16T00:45:57.936Z,23.10
2022-08-16T00:48:31.942Z,23.10
2022-08-16T00:51:16.089Z,23.10
2022-08-16T00:53:48.215Z,23.00
2022-08-16T00:56:57.760Z,23.10
2022-08-16T00:59:11.217Z,23.10
2022-08-16T01:01:43.084Z,23.10
2022-08-16T01:04:29.535Z,23.20
2022-08-16T01:07:03.134Z,23.10
2022-08-16T01:09:37.238Z,23.10
2022-08-16T01:12:11.101Z,23.00
2022-08-16T01:14:58.657Z,23.10
2022-08-16T01:17:28.010Z,23.10
2022-08-16T01:20:24.175Z,23.20
2022-08-16T01:23:12.885Z,23.10
2022-08-16T01:25:59.819Z,23.10
2022-08-16T01:28:38.897Z,23.20
2022-08-16T01:31:14.833Z,23.20
2022-08-16T01:33:44.570Z,23.20
2022-08-16T01:36:13.114Z,23.20
2022-08-16T01:38:48.870Z,23.10
2022-08-16T01:41:24.385Z,23.00
2022-08-16T01:43:54.677Z,22.80
2022-08-16T01:46:58.113Z,22.80
2022-08-16T01:49:45.437Z,22.80
2022-08-16T01:52:30.239Z,22.90
2022-08-16T01:55:11.532Z,23.00
2022-08-16T01:57:38.860Z,23.20
2022-08-16T02:00:19.399Z,23.00
2022-08-16T02:02:52.108Z,22.90
2022-08-16T02:05:21.152Z,22.90
2022-08-16T02:07:52.061Z,23.00
2022-08-16T02:10:19.719Z,22.90
2022-08-16T02:12:51.209Z,22.90
2022-08-16T02:15:26.529Z,22.80
2022-08-16T02:18:01.270Z,22.80
2022-08-16T02:20:32.937Z,22.70
2022-08-16T02:23:05.704Z,22.80
2022-08-16T02:25:51.702Z,22.80
2022-08-16T02:28:21.170Z,22.70
2022-08-16T02:30:56.421Z,22.80
2022-08-16T02:33:44.146Z,22.70
2022-08-16T02:36:42.460Z,22.70
2022-08-16T02:39:12.157Z,22.80
2022-08-16T02:41:44.429Z,22.80
2022-08-16T02:44:14.033Z,22.70
2022-08-16T02:46:50.291Z,22.70
2022-08-16T02:49:20.933Z,22.70
2022-08-16T02:51:50.130Z,22.90
2022-08-16T02:54:17.271Z,22.90
2022-08-16T02:56:47.900Z,22.80
2022-08-16T02:59:16.352Z,22.70
2022-08-16T03:01:43.655Z,22.70
2022-08-16T03:04:39.845Z,22.50
2022-08-16T03:07:06.845Z,22.40
2022-08-16T03:09:47.970Z,22.40
2022-08-16T03:12:21.157Z,22.30
2022-08-16T03:14:57.625Z,22.20
2022-08-16T03:17:24.442Z,22.20
2022-08-16T03:20:03.156Z,22.10
2022-08-16T03:22:37.976Z,22.20
2022-08-16T03:25:14.044Z,22.20
2022-08-16T03:27:48.916Z,22.30
2022-08-16T03:30:24.219Z,22.30
2022-08-16T03:33:00.940Z,22.20
2022-08-16T03:35:36.322Z,22.20
2022-08-16T03:38:32.821Z,22.10
2022-08-16T03:41:24.191Z,22.10
2022-08-16T03:43:57.061Z,22.10
2022-08-16T03:46:48.161Z,22.00
2022-08-16T03:49:17.929Z,21.90
2022-08-16T03:51:49.095Z,21.80
2022-08-16T03:54:22.300Z,21.80
2022-08-16T03:56:57.833Z,21.80
2022-08-16T03:59:31.273Z,21.90
2022-08-16T04:02:04.209Z,21.90
2022-08-16T04:04:42.270Z,22.00
2022-08-16T04:07:10.437Z,22.00
2022-08-16T04:09:40.955Z,22.00
2022-08-16T04:12:53.532Z,22.00
2022-08-16T04:15:02.401Z,21.90
2022-08-16T04:17:30.187Z,21.90
2022-08-16T04:19:58.172Z,21.90
2022-08-16T04:22:27.393Z,22.20
2022-08-16T04:25:06.454Z,22.00
2022-08-16T04:27:36.497Z,22.00
2022-08-16T04:30:11.050Z,22.00
2022-08-16T04:32:44.570Z,22.00
2022-08-16T04:35:21.088Z,21.90
2022-08-16T04:37:53.666Z,21.90
2022-08-16T04:40:28.458Z,21.80
2022-08-16T04:43:00.561Z,21.80
2022-08-16T04:45:35.890Z,21.90
2022-08-16T04:48:10.268Z,22.00
2022-08-16T04:50:49.196Z,21.90
2022-08-16T04:53:19.675Z,21.90
2022-08-16T04:55:53.239Z,21.90
2022-08-16T04:58:44.378Z,21.90
2022-08-16T05:01:09.573Z,21.90
2022-08-16T05:03:41.968Z,21.90
2022-08-16T05:06:42.256Z,21.90
2022-08-16T05:09:19.086Z,22.00
2022-08-16T05:11:50.124Z,21.90
2022-08-16T05:14:20.368Z,21.80
2022-08-16T05:17:04.806Z,21.90
2022-08-16T05:19:36.188Z,21.90
2022-08-16T05:22:18.026Z,21.80
2022-08-16T05:24:49.422Z,21.70
2022-08-16T05:27:21.945Z,21.60
2022-08-16T05:29:57.777Z,21.60
2022-08-16T05:32:36.275Z,21.60
2022-08-16T05:35:12.264Z,21.60
2022-08-16T05:37:47.492Z,21.70
2022-08-16T05:40:16.678Z,21.80
2022-08-16T05:42:46.107Z,21.80
2022-08-16T05:45:21.383Z,21.70
2022-08-16T05:47:49.855Z,21.60
2022-08-16T05:50:34.375Z,21.70
2022-08-16T05:53:03.161Z,21.80
2022-08-16T05:55:30.261Z,21.80
2022-08-16T05:57:58.126Z,21.70
2022-08-16T06:00:25.337Z,21.80
2022-08-16T06:02:57.280Z,21.70
2022-08-16T06:05:47.313Z,21.70
2022-08-16T06:08:32.274Z,21.60
2022-08-16T06:11:09.588Z,21.60
2022-08-16T06:13:42.148Z,21.80
2022-08-16T06:16:18.267Z,22.10
2022-08-16T06:18:49.506Z,22.00
2022-08-16T06:21:23.600Z,22.10
2022-08-16T06:23:55.194Z,22.20
2022-08-16T06:26:23.862Z,22.30
2022-08-16T06:29:02.090Z,22.40
2022-08-16T06:31:46.619Z,22.60
2022-08-16T06:34:55.421Z,22.60
2022-08-16T06:37:03.682Z,22.70
2022-08-16T06:39:46.706Z,22.80
2022-08-16T06:42:47.624Z,22.90
2022-08-16T06:45:44.875Z,23.00
2022-08-16T06:48:21.216Z,23.10
2022-08-16T06:51:05.767Z,23.20
2022-08-16T06:53:35.452Z,23.30
2022-08-16T06:56:13.811Z,23.40
2022-08-16T06:58:55.228Z,23.50
2022-08-16T07:01:43.298Z,23.60
2022-08-16T07:04:32.355Z,23.30
2022-08-16T07:07:09.886Z,23.40
2022-08-16T07:09:38.310Z,23.40
2022-08-16T07:12:08.133Z,23.60
2022-08-16T07:14:40.061Z,23.80
2022-08-16T07:17:11.357Z,23.90
2022-08-16T07:20:30.041Z,23.90
2022-08-16T07:22:41.265Z,24.10
2022-08-16T07:25:17.267Z,24.30
2022-08-16T07:27:45.713Z,24.40
2022-08-16T07:30:38.813Z,24.50
2022-08-16T07:33:07.780Z,24.70
2022-08-16T07:35:44.566Z,25.00
2022-08-16T07:38:19.933Z,25.20
2022-08-16T07:41:09.921Z,25.50
2022-08-16T07:43:41.696Z,25.50
2022-08-16T07:46:37.641Z,25.60
2022-08-16T07:49:02.594Z,25.70
2022-08-16T07:51:35.577Z,25.80
2022-08-16T07:54:09.727Z,25.70
2022-08-16T07:56:50.153Z,25.70
2022-08-16T07:59:17.666Z,25.60
2022-08-16T08:01:55.356Z,25.90
2022-08-16T08:04:27.188Z,26.20
2022-08-16T08:07:02.332Z,26.60
2022-08-16T08:09:37.543Z,26.90
2022-08-16T08:12:32.399Z,27.30
2022-08-16T08:15:01.115Z,27.50
2022-08-16T08:17:42.555Z,27.80
2022-08-16T08:20:18.606Z,27.90
2022-08-16T08:23:00.121Z,28.20
2022-08-16T08:25:52.743Z,28.30
2022-08-16T08:28:18.588Z,28.50
2022-08-16T08:31:01.039Z,28.90
2022-08-16T08:33:33.947Z,29.10
2022-08-16T08:36:05.372Z,29.20
2022-08-16T08:38:43.884Z,29.20
2022-08-16T08:41:15.414Z,29.30
2022-08-16T08:43:50.548Z,29.20
2022-08-16T08:46:21.729Z,29.20
2022-08-16T08:49:01.898Z,29.30
2022-08-16T08:51:38.250Z,29.50
2022-08-16T08:54:14.229Z,29.50
2022-08-16T08:56:46.515Z,29.30
2022-08-16T08:59:28.292Z,29.10
2022-08-16T09:01:57.968Z,28.90
2022-08-16T09:04:35.195Z,28.60
2022-08-16T09:07:05.528Z,28.40
2022-08-16T09:09:37.815Z,28.60
2022-08-16T09:12:35.695Z,28.80
2022-08-16T09:15:06.695Z,28.90
2022-08-16T09:17:51.770Z,29.00
2022-08-16T09:20:27.128Z,29.00
2022-08-16T09:22:54.820Z,29.00
2022-08-16T09:25:34.506Z,29.00
2022-08-16T09:29:13.565Z,29.20
2022-08-16T09:31:11.033Z,29.40
2022-08-16T09:33:39.298Z,29.70
2022-08-16T09:36:12.195Z,29.90
2022-08-16T09:38:59.949Z,30.00
2022-08-16T09:41:27.227Z,30.10
2022-08-16T09:44:00.870Z,30.10
2022-08-16T09:46:46.009Z,30.10
2022-08-16T09:49:19.735Z,30.20
2022-08-16T09:51:53.166Z,30.20
2022-08-16T09:54:25.549Z,30.50
2022-08-16T09:57:00.097Z,30.80
2022-08-16T09:59:30.443Z,31.00
2022-08-16T10:01:58.245Z,31.00
2022-08-16T10:04:31.096Z,31.00
2022-08-16T10:07:02.864Z,30.70
2022-08-16T10:09:53.583Z,30.60
2022-08-16T10:12:46.592Z,30.50
2022-08-16T10:15:23.633Z,30.50
2022-08-16T10:18:01.521Z,30.70
2022-08-16T10:20:31.764Z,30.60
2022-08-16T10:23:05.723Z,30.70
2022-08-16T10:27:03.782Z,30.70
2022-08-16T10:28:29.213Z,30.80
2022-08-16T10:30:59.757Z,30.80
2022-08-16T10:33:29.578Z,30.80
2022-08-16T10:36:03.636Z,30.70
2022-08-16T10:38:36.593Z,30.80
2022-08-16T10:41:08.676Z,30.90
2022-08-16T10:43:40.739Z,30.90
2022-08-16T10:46:39.141Z,30.70
2022-08-16T10:49:01.085Z,30.60
2022-08-16T10:51:34.178Z,30.50
2022-08-16T10:54:28.903Z,30.60
2022-08-16T10:56:59.003Z,30.70
2022-08-16T10:59:39.048Z,30.60
2022-08-16T11:03:00.788Z,30.70
2022-08-16T11:05:09.416Z,30.70
2022-08-16T11:07:43.658Z,30.80
2022-08-16T11:11:04.718Z,31.00
2022-08-16T11:15:55.901Z,31.00
2022-08-16T11:19:03.061Z,31.00
2022-08-16T11:21:29.502Z,31.00
2022-08-16T11:23:58.830Z,31.20
2022-08-16T11:26:27.077Z,31.30
2022-08-16T11:31:53.762Z,31.90
2022-08-16T11:34:21.416Z,32.10
2022-08-16T11:36:59.282Z,32.10
2022-08-16T11:39:29.281Z,32.00
2022-08-16T11:41:57.756Z,31.90
2022-08-16T11:44:45.270Z,31.60
2022-08-16T11:47:13.194Z,31.50
2022-08-16T11:49:40.014Z,31.40
2022-08-16T11:52:07.370Z,31.40
2022-08-16T11:54:36.767Z,31.60
2022-08-16T11:57:08.988Z,31.70
2022-08-16T11:59:39.602Z,31.80
2022-08-16T12:02:31.839Z,31.90
2022-08-16T12:04:56.433Z,31.90
2022-08-16T12:07:24.212Z,31.90
2022-08-16T12:09:53.654Z,31.70
2022-08-16T12:12:23.447Z,31.50
2022-08-16T12:14:59.212Z,31.30
2022-08-16T12:17:29.006Z,31.10
2022-08-16T12:19:58.925Z,30.90
2022-08-16T12:22:26.622Z,30.80
2022-08-16T12:24:54.341Z,30.80
2022-08-16T12:27:24.028Z,31.20
2022-08-16T12:29:54.873Z,31.60
2022-08-16T12:32:36.003Z,31.90
2022-08-16T12:35:09.154Z,31.60
2022-08-16T12:37:36.207Z,31.60
2022-08-16T12:40:04.896Z,31.70
2022-08-16T12:42:35.662Z,31.90
2022-08-16T12:45:12.576Z,31.90
2022-08-16T12:48:29.398Z,32.10
2022-08-16T12:50:49.346Z,32.10
2022-08-16T12:53:18.166Z,32.10
2022-08-16T12:55:44.993Z,32.10
2022-08-16T12:58:49.328Z,32.10
2022-08-16T13:01:01.504Z,31.90
2022-08-16T13:03:32.129Z,32.10
2022-08-16T13:06:00.492Z,32.30
2022-08-16T13:08:30.812Z,32.50
2022-08-16T13:10:58.983Z,32.30
2022-08-16T13:13:27.434Z,32.40
2022-08-16T13:16:05.103Z,32.40
2022-08-16T13:18:38.319Z,32.50
2022-08-16T13:21:07.904Z,32.60
2022-08-16T13:23:43.711Z,32.90
2022-08-16T13:26:11.095Z,33.00
2022-08-16T13:28:39.079Z,32.70
2022-08-16T13:31:13.234Z,32.40
2022-08-16T13:33:42.873Z,32.50
2022-08-16T13:36:21.375Z,32.70
2022-08-16T13:39:00.028Z,33.20
2022-08-16T13:41:30.158Z,33.70
2022-08-16T13:44:00.789Z,34.00
2022-08-16T13:46:30.162Z,34.20
2022-08-16T13:48:57.294Z,34.50
2022-08-16T13:51:29.151Z,35.00
2022-08-16T13:54:04.544Z,35.00
2022-08-16T13:56:37.842Z,34.70
2022-08-16T13:59:19.707Z,34.50
2022-08-16T14:02:05.511Z,34.80
2022-08-16T14:04:35.478Z,34.60
2022-08-16T14:07:06.765Z,34.20
2022-08-16T14:09:36.415Z,33.80
2022-08-16T14:12:18.006Z,33.50
2022-08-16T14:14:46.038Z,33.20
2022-08-16T14:17:14.425Z,33.00
2022-08-16T14:19:44.834Z,33.00
2022-08-16T14:22:30.295Z,32.90
2022-08-16T14:25:00.496Z,32.70
2022-08-16T14:27:30.423Z,32.50
2022-08-16T14:29:59.570Z,32.40
2022-08-16T14:32:33.908Z,32.30
2022-08-16T14:35:07.405Z,32.40
2022-08-16T14:37:35.094Z,32.60
2022-08-16T14:40:03.574Z,33.00
2022-08-16T14:42:30.824Z,33.20
2022-08-16T14:44:57.701Z,33.70
2022-08-16T14:47:31.584Z,34.50
2022-08-16T14:50:01.916Z,35.30
2022-08-16T14:52:54.160Z,36.30
2022-08-16T14:55:16.073Z,36.70
2022-08-16T14:57:43.606Z,36.70
2022-08-16T15:00:13.427Z,36.40
2022-08-16T15:02:52.867Z,36.20
2022-08-16T15:05:23.838Z,36.20
2022-08-16T15:07:52.910Z,36.30
2022-08-16T15:10:24.488Z,36.40
2022-08-16T15:12:56.286Z,36.20
2022-08-16T15:15:27.013Z,36.20
2022-08-16T15:17:56.585Z,36.30
2022-08-16T15:20:29.629Z,36.10
2022-08-16T15:22:59.622Z,36.00
2022-08-16T15:25:30.334Z,35.60
2022-08-16T15:27:58.793Z,35.10
2022-08-16T15:30:56.573Z,34.70
2022-08-16T15:33:17.405Z,34.40
2022-08-16T15:35:46.174Z,34.00
2022-08-16T15:38:31.752Z,33.60
2022-08-16T15:41:01.870Z,33.30
2022-08-16T15:43:39.357Z,33.20
2022-08-16T15:46:35.594Z,33.50
2022-08-16T15:49:12.473Z,34.20
2022-08-16T15:51:41.448Z,35.40
2022-08-16T15:54:29.387Z,35.90
2022-08-16T15:57:09.656Z,36.20
2022-08-16T15:59:49.004Z,36.00
2022-08-16T16:02:27.733Z,35.10
2022-08-16T16:05:01.586Z,34.60
2022-08-16T16:07:30.514Z,34.10
2022-08-16T16:09:59.344Z,33.60
2022-08-16T16:12:53.531Z,33.30
2022-08-16T16:15:19.017Z,33.00
2022-08-16T16:17:51.178Z,32.70
2022-08-16T16:20:24.384Z,32.40
2022-08-16T16:23:04.439Z,32.10
2022-08-16T16:25:39.679Z,31.70
2022-08-16T16:29:05.012Z,31.40
2022-08-16T16:31:05.552Z,31.20
2022-08-16T16:33:38.863Z,31.10
2022-08-16T16:36:08.757Z,30.90
2022-08-16T16:38:39.264Z,30.80
2022-08-16T16:41:10.102Z,30.70
2022-08-16T16:43:40.714Z,30.60
2022-08-16T16:46:40.652Z,30.40
2022-08-16T16:48:56.650Z,30.40
2022-08-16T16:51:24.466Z,30.40
2022-08-16T16:53:56.807Z,30.40
2022-08-16T16:56:30.088Z,30.30
2022-08-16T16:59:01.729Z,30.30
2022-08-16T17:01:57.080Z,30.30
2022-08-16T17:04:23.996Z,30.10
2022-08-16T17:06:58.282Z,30.00
2022-08-16T17:09:27.326Z,29.90
2022-08-16T17:11:55.088Z,29.90
2022-08-16T17:14:32.945Z,29.90
2022-08-16T17:17:03.898Z,29.90
2022-08-16T17:19:31.838Z,29.80
2022-08-16T17:22:00.422Z,29.80
2022-08-16T17:24:39.221Z,29.80
2022-08-16T17:27:08.228Z,29.80
2022-08-16T17:29:35.523Z,29.80
2022-08-16T17:32:34.419Z,29.70
2022-08-16T17:35:11.513Z,29.60
2022-08-16T17:37:54.335Z,29.50
2022-08-16T17:40:40.412Z,29.40
2022-08-16T17:43:13.351Z,29.30
2022-08-16T17:45:42.881Z,29.20
2022-08-16T17:48:10.780Z,29.10
2022-08-16T17:50:38.966Z,29.00
2022-08-16T17:53:09.798Z,28.90
2022-08-16T17:55:40.935Z,28.70
2022-08-16T17:58:22.916Z,28.60
2022-08-16T18:00:53.889Z,28.70
2022-08-16T18:04:02.976Z,28.40
2022-08-16T18:06:20.427Z,28.40
2022-08-16T18:08:48.642Z,28.30
2022-08-16T18:11:18.331Z,28.20
2022-08-16T18:13:47.923Z,28.20
2022-08-16T18:16:16.908Z,28.10
2022-08-16T18:18:44.492Z,28.00
2022-08-16T18:21:31.514Z,27.90
2022-08-16T18:23:59.789Z,27.90
2022-08-16T18:26:26.838Z,27.80
2022-08-16T18:28:55.774Z,27.70
2022-08-16T18:31:22.775Z,27.60
2022-08-16T18:33:55.554Z,27.50
2022-08-16T18:36:26.391Z,27.40
2022-08-16T18:38:54.890Z,27.30
2022-08-16T18:41:28.453Z,27.30
2022-08-16T18:44:25.652Z,27.20
2022-08-16T18:46:50.815Z,27.10
2022-08-16T18:49:21.136Z,27.00
2022-08-16T18:51:48.021Z,27.00
2022-08-16T18:54:18.129Z,26.90
2022-08-16T18:56:56.246Z,26.80
2022-08-16T18:59:27.213Z,26.70
2022-08-16T19:02:00.480Z,26.70
2022-08-16T19:04:56.080Z,26.60
2022-08-16T19:07:30.462Z,26.60
2022-08-16T19:10:03.694Z,26.60
2022-08-16T19:12:38.108Z,26.50
2022-08-16T19:15:18.256Z,26.50
2022-08-16T19:17:47.611Z,26.40
2022-08-16T19:20:18.288Z,26.30
2022-08-16T19:23:05.345Z,26.30
2022-08-16T19:25:48.541Z,26.20
2022-08-16T19:28:52.003Z,26.00
2022-08-16T19:31:10.850Z,26.10
2022-08-16T19:33:38.747Z,26.00
2022-08-16T19:36:05.900Z,25.90
2022-08-16T19:38:33.731Z,25.90
2022-08-16T19:41:00.664Z,25.80
2022-08-16T19:43:27.833Z,25.80
2022-08-16T19:45:55.394Z,25.80
2022-08-16T19:48:22.751Z,25.80
2022-08-16T19:50:49.749Z,25.70
2022-08-16T19:53:18.660Z,25.70
2022-08-16T19:55:47.250Z,25.60
2022-08-16T19:58:18.006Z,25.60
2022-08-16T20:00:47.253Z,25.60
2022-08-16T20:03:21.763Z,25.50
2022-08-16T20:05:50.338Z,25.50
2022-08-16T20:08:17.473Z,25.50
2022-08-16T20:10:46.735Z,25.50
2022-08-16T20:13:18.503Z,25.50
2022-08-16T20:15:47.472Z,25.50
2022-08-16T20:18:24.551Z,25.40
2022-08-16T20:20:54.560Z,25.40
2022-08-16T20:23:24.999Z,25.40
2022-08-16T20:25:55.635Z,25.40
2022-08-16T20:28:53.126Z,25.40
2022-08-16T20:31:11.379Z,25.30
2022-08-16T20:33:38.294Z,25.30
2022-08-16T20:36:05.390Z,25.40
2022-08-16T20:38:32.226Z,25.40
2022-08-16T20:40:58.970Z,25.40
2022-08-16T20:43:25.803Z,25.30
2022-08-16T20:45:52.822Z,25.30
2022-08-16T20:48:19.720Z,25.30
2022-08-16T20:50:46.734Z,25.30
2022-08-16T20:53:13.502Z,25.30
2022-08-16T20:55:41.638Z,25.30
2022-08-16T20:58:08.555Z,25.30
2022-08-16T21:00:36.045Z,25.30
2022-08-16T21:03:10.759Z,25.30
2022-08-16T21:05:37.941Z,25.20
2022-08-16T21:08:27.927Z,25.20
2022-08-16T21:10:52.920Z,25.10
2022-08-16T21:13:20.826Z,25.10
2022-08-16T21:15:47.917Z,25.00
2022-08-16T21:18:15.027Z,25.00
2022-08-16T21:20:41.858Z,24.90
2022-08-16T21:23:10.938Z,25.00
2022-08-16T21:25:39.609Z,25.00
2022-08-16T21:28:40.046Z,24.90
2022-08-16T21:31:07.623Z,24.90
2022-08-16T21:33:36.799Z,24.80
2022-08-16T21:36:04.058Z,24.70
2022-08-16T21:38:31.228Z,24.70
2022-08-16T21:40:59.342Z,24.70
2022-08-16T21:43:28.642Z,24.70
2022-08-16T21:45:55.697Z,24.70
2022-08-16T21:48:34.806Z,24.70
2022-08-16T21:51:05.589Z,24.70
2022-08-16T21:53:32.633Z,24.70
2022-08-16T21:56:00.099Z,24.60
2022-08-16T21:58:27.454Z,24.70
2022-08-16T22:00:54.549Z,24.70
2022-08-16T22:03:21.449Z,24.70
2022-08-16T22:06:00.104Z,24.70
2022-08-16T22:08:49.011Z,24.60
2022-08-16T22:11:20.869Z,24.70
2022-08-16T22:13:51.289Z,24.60
2022-08-16T22:16:26.659Z,24.60
2022-08-16T22:18:53.482Z,24.60
2022-08-16T22:21:20.574Z,24.50
2022-08-16T22:23:55.242Z,24.50
2022-08-16T22:26:30.468Z,24.40
2022-08-16T22:29:00.689Z,24.40
2022-08-16T22:31:27.811Z,24.50
2022-08-16T22:33:56.583Z,24.40
2022-08-16T22:36:24.219Z,24.40
2022-08-16T22:38:59.678Z,24.40
2022-08-16T22:41:34.267Z,24.30
2022-08-16T22:44:02.524Z,24.20
2022-08-16T22:46:30.155Z,24.10
2022-08-16T22:48:57.478Z,24.00
2022-08-16T22:51:26.758Z,23.90
2022-08-16T22:53:54.881Z,23.90
2022-08-16T22:56:22.787Z,23.80
2022-08-16T22:58:49.738Z,23.90
2022-08-16T23:01:18.932Z,23.80
2022-08-16T23:03:46.227Z,23.80
2022-08-16T23:06:14.240Z,23.70
2022-08-16T23:08:42.920Z,23.70
2022-08-16T23:11:13.507Z,23.70
2022-08-16T23:13:52.557Z,23.70
2022-08-16T23:16:32.500Z,23.80
2022-08-16T23:19:03.543Z,23.90
2022-08-16T23:21:31.088Z,23.80
2022-08-16T23:23:58.296Z,23.80
2022-08-16T23:26:46.193Z,23.80
2022-08-16T23:29:15.564Z,23.70
2022-08-16T23:31:54.871Z,23.70
2022-08-16T23:34:22.459Z,23.70
2022-08-16T23:36:49.374Z,23.70
2022-08-16T23:39:16.275Z,23.70
2022-08-16T23:41:44.418Z,23.60
2022-08-16T23:44:55.974Z,23.60
2022-08-16T23:46:59.022Z,23.60
2022-08-16T23:49:58.106Z,23.60
2022-08-16T23:52:12.914Z,23.70
2022-08-16T23:54:39.718Z,23.60
2022-08-16T23:57:07.970Z,23.80
2022-08-16T23:59:52.601Z,23.70
